createdAt,value
2017-09-25T00:02:00.407Z,17.10
2017-09-25T00:04:28.093Z,17.10
2017-09-25T00:06:55.733Z,17.10
2017-09-25T00:09:23.355Z,17.20
2017-09-25T00:11:51.794Z,17.20
2017-09-25T00:14:19.440Z,17.10
2017-09-25T00:16:47.119Z,17.20
2017-09-25T00:19:14.761Z,17.20
2017-09-25T00:21:42.385Z,17.20
2017-09-25T00:24:10.912Z,17.20
2017-09-25T00:26:38.779Z,17.10
2017-09-25T00:29:06.441Z,17.10
2017-09-25T00:31:34.101Z,17.10
2017-09-25T00:34:01.867Z,17.10
2017-09-25T00:36:29.493Z,17.10
2017-09-25T00:38:57.175Z,17.20
2017-09-25T00:41:24.812Z,17.20
2017-09-25T00:43:52.450Z,17.20
2017-09-25T00:46:20.174Z,17.20
2017-09-25T00:48:47.940Z,17.20
2017-09-25T00:51:15.619Z,17.20
2017-09-25T00:53:55.196Z,17.20
2017-09-25T00:56:23.724Z,17.20
2017-09-25T00:58:51.387Z,17.20
2017-09-25T01:01:19.033Z,17.20
2017-09-25T01:03:53.631Z,17.20
2017-09-25T01:06:27.915Z,17.20
2017-09-25T01:08:55.679Z,17.20
2017-09-25T01:11:23.300Z,17.20
2017-09-25T01:13:50.940Z,17.20
2017-09-25T01:16:18.574Z,17.30
2017-09-25T01:18:46.235Z,17.30
2017-09-25T01:21:13.860Z,17.30
2017-09-25T01:23:41.626Z,17.30
2017-09-25T01:26:09.258Z,17.30
2017-09-25T01:28:36.971Z,17.30
2017-09-25T01:31:04.613Z,17.30
2017-09-25T01:33:32.375Z,17.30
2017-09-25T01:36:00.027Z,17.30
2017-09-25T01:38:27.717Z,17.30
2017-09-25T01:40:55.347Z,17.30
2017-09-25T01:43:23.025Z,17.20
2017-09-25T01:45:50.676Z,17.20
2017-09-25T01:48:18.335Z,17.20
2017-09-25T01:50:45.977Z,17.20
2017-09-25T01:53:13.773Z,17.20
2017-09-25T01:55:41.423Z,17.20
2017-09-25T01:58:09.078Z,17.30
2017-09-25T02:00:36.778Z,17.30
2017-09-25T02:03:04.521Z,17.30
2017-09-25T02:05:32.390Z,17.20
2017-09-25T02:08:00.047Z,17.20
2017-09-25T02:10:27.724Z,17.30
2017-09-25T02:12:55.393Z,17.30
2017-09-25T02:15:23.068Z,17.30
2017-09-25T02:17:50.701Z,17.30
2017-09-25T02:20:18.366Z,17.30
2017-09-25T02:22:46.012Z,17.30
2017-09-25T02:25:13.688Z,17.30
2017-09-25T02:27:41.322Z,17.30
2017-09-25T02:30:08.948Z,17.30
2017-09-25T02:32:37.408Z,17.30
2017-09-25T02:35:05.051Z,17.20
2017-09-25T02:37:32.822Z,17.30
2017-09-25T02:40:00.502Z,17.20
2017-09-25T02:42:28.247Z,17.20
2017-09-25T02:44:55.905Z,17.20
2017-09-25T02:47:23.671Z,17.20
2017-09-25T02:49:51.349Z,17.20
2017-09-25T02:52:18.968Z,17.20
2017-09-25T02:54:46.617Z,17.20
2017-09-25T02:57:14.260Z,17.20
2017-09-25T02:59:42.686Z,17.20
2017-09-25T03:02:10.317Z,17.20
2017-09-25T03:04:38.016Z,17.20
2017-09-25T03:07:05.656Z,17.20
2017-09-25T03:09:33.291Z,17.20
2017-09-25T03:12:01.744Z,17.20
2017-09-25T03:14:29.392Z,17.10
2017-09-25T03:16:57.047Z,17.20
2017-09-25T03:19:24.811Z,17.20
2017-09-25T03:21:52.574Z,17.20
2017-09-25T03:24:20.359Z,17.20
2017-09-25T03:26:48.104Z,17.20
2017-09-25T03:29:15.768Z,17.20
2017-09-25T03:31:43.447Z,17.20
2017-09-25T03:34:11.064Z,17.30
2017-09-25T03:36:38.730Z,17.30
2017-09-25T03:39:06.356Z,17.30
2017-09-25T03:41:34.798Z,17.30
2017-09-25T03:44:02.477Z,17.20
2017-09-25T03:46:30.214Z,17.30
2017-09-25T03:48:57.895Z,17.30
2017-09-25T03:51:25.519Z,17.30
2017-09-25T03:53:53.173Z,17.30
2017-09-25T03:56:20.800Z,17.30
2017-09-25T03:58:49.247Z,17.20
2017-09-25T04:01:16.917Z,17.20
2017-09-25T04:03:44.561Z,17.20
2017-09-25T04:06:12.220Z,17.20
2017-09-25T04:08:39.864Z,17.20
2017-09-25T04:11:07.570Z,17.20
2017-09-25T04:13:35.205Z,17.20
2017-09-25T04:16:02.894Z,17.20
2017-09-25T04:18:30.635Z,17.20
2017-09-25T04:20:58.326Z,17.20
2017-09-25T04:23:26.087Z,17.20
2017-09-25T04:25:55.234Z,17.10
2017-09-25T04:28:22.864Z,17.10
2017-09-25T04:30:51.422Z,17.10
2017-09-25T04:33:19.066Z,17.10
2017-09-25T04:35:46.712Z,17.20
2017-09-25T04:38:14.352Z,17.10
2017-09-25T04:40:42.031Z,17.10
2017-09-25T04:43:09.665Z,17.10
2017-09-25T04:45:38.107Z,17.20
2017-09-25T04:48:05.783Z,17.10
2017-09-25T04:50:33.518Z,17.10
2017-09-25T04:53:01.168Z,17.10
2017-09-25T04:55:28.796Z,17.10
2017-09-25T04:57:57.223Z,17.20
2017-09-25T05:00:24.882Z,17.10
2017-09-25T05:02:52.511Z,17.20
2017-09-25T05:05:20.165Z,17.20
2017-09-25T05:07:48.692Z,17.20
2017-09-25T05:10:16.358Z,17.20
2017-09-25T05:12:43.985Z,17.20
2017-09-25T05:15:11.604Z,17.30
2017-09-25T05:17:39.440Z,17.30
2017-09-25T05:20:07.073Z,17.30
2017-09-25T05:22:34.716Z,17.30
2017-09-25T05:25:03.109Z,17.30
2017-09-25T05:27:30.908Z,17.20
2017-09-25T05:29:58.544Z,17.20
2017-09-25T05:32:26.257Z,17.20
2017-09-25T05:34:53.905Z,17.20
2017-09-25T05:37:21.755Z,17.30
2017-09-25T05:39:49.426Z,17.30
2017-09-25T05:42:17.053Z,17.30
2017-09-25T05:44:44.764Z,17.30
2017-09-25T05:49:33.210Z,17.20
2017-09-25T05:52:00.878Z,17.20
2017-09-25T05:54:28.505Z,17.20
2017-09-25T05:56:56.166Z,17.20
2017-09-25T05:59:23.787Z,17.20
2017-09-25T06:01:51.450Z,17.20
2017-09-25T06:04:19.888Z,17.20
2017-09-25T06:06:47.530Z,17.20
2017-09-25T06:09:15.196Z,17.30
2017-09-25T06:11:42.856Z,17.30
2017-09-25T06:14:10.482Z,17.30
2017-09-25T06:16:38.911Z,17.30
2017-09-25T06:19:06.556Z,17.30
2017-09-25T06:21:34.240Z,17.40
2017-09-25T06:24:01.867Z,17.40
2017-09-25T06:26:29.500Z,17.40
2017-09-25T06:28:57.144Z,17.40
2017-09-25T06:31:24.780Z,17.40
2017-09-25T06:33:52.442Z,17.30
2017-09-25T06:36:20.068Z,17.40
2017-09-25T06:38:48.503Z,17.30
2017-09-25T06:41:16.254Z,17.30
2017-09-25T06:43:44.020Z,17.40
2017-09-25T06:46:11.682Z,17.30
2017-09-25T06:48:39.312Z,17.30
2017-09-25T06:51:06.960Z,17.40
2017-09-25T06:53:35.487Z,17.30
2017-09-25T06:56:03.154Z,17.30
2017-09-25T06:58:30.780Z,17.30
2017-09-25T07:00:58.426Z,17.30
2017-09-25T07:03:26.837Z,17.40
2017-09-25T07:05:54.467Z,17.30
2017-09-25T07:08:22.880Z,17.40
2017-09-25T07:10:50.531Z,17.30
2017-09-25T07:13:18.198Z,17.30
2017-09-25T07:15:45.840Z,17.30
2017-09-25T07:18:13.464Z,17.40
2017-09-25T07:20:41.129Z,17.30
2017-09-25T07:23:08.762Z,17.30
2017-09-25T07:25:36.434Z,17.40
2017-09-25T07:28:04.075Z,17.40
2017-09-25T07:30:32.495Z,17.40
2017-09-25T07:33:00.154Z,17.30
2017-09-25T07:35:27.794Z,17.40
2017-09-25T07:37:55.560Z,17.30
2017-09-25T07:40:23.198Z,17.40
2017-09-25T07:42:50.818Z,17.40
2017-09-25T07:45:19.252Z,17.40
2017-09-25T07:47:46.900Z,17.30
2017-09-25T07:50:14.558Z,17.40
2017-09-25T07:52:42.230Z,17.50
2017-09-25T07:55:09.921Z,17.50
2017-09-25T07:57:37.560Z,17.50
2017-09-25T08:00:05.225Z,17.40
2017-09-25T08:02:32.866Z,17.50
2017-09-25T08:05:00.493Z,17.50
2017-09-25T08:07:29.026Z,17.50
2017-09-25T08:09:56.671Z,17.50
2017-09-25T08:12:24.347Z,17.60
2017-09-25T08:14:51.988Z,17.60
2017-09-25T08:17:19.608Z,17.60
2017-09-25T08:19:47.264Z,17.60
2017-09-25T08:22:14.900Z,17.70
2017-09-25T08:24:43.333Z,17.70
2017-09-25T08:27:11.724Z,17.70
2017-09-25T08:29:39.357Z,17.70
2017-09-25T08:32:07.776Z,17.70
2017-09-25T08:34:35.415Z,17.60
2017-09-25T08:37:03.255Z,17.70
2017-09-25T08:39:31.668Z,17.80
2017-09-25T08:41:59.323Z,17.80
2017-09-25T08:44:26.965Z,17.80
2017-09-25T08:46:54.638Z,17.80
2017-09-25T08:49:23.032Z,17.90
2017-09-25T08:51:50.683Z,17.90
2017-09-25T08:54:19.109Z,18.00
2017-09-25T08:56:46.755Z,18.00
2017-09-25T08:59:14.435Z,18.00
2017-09-25T09:01:42.083Z,18.00
2017-09-25T09:04:09.736Z,18.10
2017-09-25T09:06:37.390Z,18.20
2017-09-25T09:09:05.013Z,18.20
2017-09-25T09:11:32.660Z,18.20
2017-09-25T09:14:00.290Z,18.30
2017-09-25T09:16:28.055Z,18.40
2017-09-25T09:18:55.795Z,18.40
2017-09-25T09:21:23.464Z,18.50
2017-09-25T09:23:51.108Z,18.60
2017-09-25T09:26:19.505Z,18.70
2017-09-25T09:28:47.166Z,18.70
2017-09-25T09:31:14.841Z,18.70
2017-09-25T09:33:42.553Z,18.80
2017-09-25T09:36:10.181Z,18.80
2017-09-25T09:38:37.855Z,18.90
2017-09-25T09:41:05.548Z,18.90
2017-09-25T09:43:33.939Z,19.00
2017-09-25T09:46:01.613Z,19.00
2017-09-25T09:48:29.257Z,19.00
2017-09-25T09:50:57.698Z,19.00
2017-09-25T09:53:25.352Z,18.90
2017-09-25T09:55:52.997Z,19.00
2017-09-25T09:58:20.674Z,19.00
2017-09-25T10:00:48.309Z,19.10
2017-09-25T10:03:18.796Z,19.10
2017-09-25T10:05:46.499Z,19.10
2017-09-25T10:08:14.158Z,19.20
2017-09-25T10:10:41.796Z,19.20
2017-09-25T10:13:10.182Z,19.10
2017-09-25T10:15:38.597Z,19.10
2017-09-25T10:18:06.217Z,19.10
2017-09-25T10:20:34.649Z,19.20
2017-09-25T10:23:02.280Z,19.10
2017-09-25T10:25:30.124Z,19.30
2017-09-25T10:27:58.527Z,19.40
2017-09-25T10:30:26.149Z,19.30
2017-09-25T10:32:53.793Z,19.40
2017-09-25T10:35:21.436Z,19.50
2017-09-25T10:37:49.112Z,19.50
2017-09-25T10:40:16.744Z,19.50
2017-09-25T10:42:44.369Z,19.60
2017-09-25T10:45:12.787Z,19.60
2017-09-25T10:47:40.423Z,19.50
2017-09-25T10:50:08.094Z,19.60
2017-09-25T10:52:35.712Z,19.50
2017-09-25T10:55:03.369Z,19.60
2017-09-25T10:57:31.010Z,19.60
2017-09-25T10:59:58.647Z,19.60
2017-09-25T11:02:26.522Z,19.70
2017-09-25T11:04:54.161Z,19.80
2017-09-25T11:07:21.822Z,19.90
2017-09-25T11:09:49.465Z,20.00
2017-09-25T11:12:17.904Z,20.20
2017-09-25T11:14:45.540Z,20.20
2017-09-25T11:17:13.317Z,20.40
2017-09-25T11:19:41.111Z,20.50
2017-09-25T11:22:08.856Z,20.50
2017-09-25T11:24:36.530Z,20.60
2017-09-25T11:27:04.760Z,20.70
2017-09-25T11:29:32.402Z,20.70
2017-09-25T11:32:00.836Z,20.70
2017-09-25T11:34:28.502Z,20.60
2017-09-25T11:36:56.166Z,20.70
2017-09-25T11:39:23.793Z,20.80
2017-09-25T11:41:51.446Z,20.80
2017-09-25T11:44:19.127Z,20.90
2017-09-25T11:46:46.770Z,21.00
2017-09-25T11:49:14.470Z,21.10
2017-09-25T11:51:42.113Z,21.10
2017-09-25T11:54:09.763Z,21.10
2017-09-25T11:56:37.432Z,21.10
2017-09-25T11:59:05.100Z,21.10
2017-09-25T12:01:32.760Z,21.00
2017-09-25T12:04:00.384Z,20.90
2017-09-25T12:06:28.806Z,20.80
2017-09-25T12:08:57.662Z,20.70
2017-09-25T12:11:26.044Z,20.70
2017-09-25T12:13:54.474Z,20.70
2017-09-25T12:16:22.106Z,20.70
2017-09-25T12:18:49.777Z,20.70
2017-09-25T12:21:17.409Z,20.80
2017-09-25T12:23:45.810Z,20.70
2017-09-25T12:26:13.461Z,20.60
2017-09-25T12:28:41.079Z,20.60
2017-09-25T12:31:08.755Z,20.60
2017-09-25T12:33:37.152Z,20.60
2017-09-25T12:36:05.576Z,20.60
2017-09-25T12:38:33.964Z,20.70
2017-09-25T12:41:01.593Z,20.60
2017-09-25T12:43:29.250Z,20.70
2017-09-25T12:45:56.880Z,20.70
2017-09-25T12:48:25.329Z,20.80
2017-09-25T12:50:52.962Z,20.80
2017-09-25T12:53:20.580Z,20.80
2017-09-25T12:55:49.036Z,21.00
2017-09-25T12:58:16.674Z,20.90
2017-09-25T13:00:44.345Z,21.00
2017-09-25T13:03:11.965Z,21.10
2017-09-25T13:05:39.604Z,21.20
2017-09-25T13:08:08.046Z,21.10
2017-09-25T13:10:35.686Z,21.00
2017-09-25T13:13:03.370Z,21.10
2017-09-25T13:15:31.012Z,21.00
2017-09-25T13:17:58.624Z,21.00
2017-09-25T13:20:26.290Z,20.90
2017-09-25T13:22:53.946Z,20.90
2017-09-25T13:25:21.611Z,20.80
2017-09-25T13:27:49.282Z,20.80
2017-09-25T13:30:17.674Z,20.70
2017-09-25T13:32:46.105Z,20.70
2017-09-25T13:35:13.738Z,20.60
2017-09-25T13:37:41.394Z,20.70
2017-09-25T13:40:09.027Z,20.60
2017-09-25T13:42:37.446Z,20.60
2017-09-25T13:45:05.112Z,20.60
2017-09-25T13:47:32.744Z,20.60
2017-09-25T13:50:00.404Z,20.60
2017-09-25T13:52:28.856Z,20.50
2017-09-25T13:54:56.531Z,20.50
2017-09-25T13:57:24.942Z,20.60
2017-09-25T14:02:26.430Z,20.60
2017-09-25T14:04:54.060Z,20.60
2017-09-25T14:07:21.722Z,20.60
2017-09-25T14:09:49.358Z,20.60
2017-09-25T14:12:17.012Z,20.60
2017-09-25T14:14:44.648Z,20.70
2017-09-25T14:17:12.313Z,20.70
2017-09-25T14:19:39.946Z,20.70
2017-09-25T14:22:07.585Z,20.70
2017-09-25T14:24:36.027Z,20.80
2017-09-25T14:27:03.654Z,20.70
2017-09-25T14:29:31.298Z,20.80
2017-09-25T14:31:58.962Z,20.80
2017-09-25T14:34:26.593Z,20.80
2017-09-25T14:36:54.245Z,20.80
2017-09-25T14:39:21.889Z,20.70
2017-09-25T14:41:49.521Z,20.70
2017-09-25T14:44:17.169Z,20.70
2017-09-25T14:46:44.792Z,20.70
2017-09-25T14:49:12.485Z,20.70
2017-09-25T14:51:40.123Z,20.60
2017-09-25T14:54:07.758Z,20.60
2017-09-25T14:56:35.422Z,20.50
2017-09-25T14:59:03.046Z,20.50
2017-09-25T15:01:30.708Z,20.40
2017-09-25T15:03:58.329Z,20.40
2017-09-25T15:06:26.026Z,20.40
2017-09-25T15:08:53.651Z,20.30
2017-09-25T15:11:21.280Z,20.20
2017-09-25T15:13:48.927Z,20.20
2017-09-25T15:16:16.618Z,20.20
2017-09-25T15:18:44.267Z,20.20
2017-09-25T15:21:11.900Z,20.20
2017-09-25T15:23:39.560Z,20.10
2017-09-25T15:26:07.481Z,20.10
2017-09-25T15:28:35.182Z,20.10
2017-09-25T15:31:03.207Z,20.10
2017-09-25T15:33:30.843Z,20.00
2017-09-25T15:35:58.667Z,20.00
2017-09-25T15:38:26.324Z,20.00
2017-09-25T15:40:54.813Z,19.90
2017-09-25T15:43:23.203Z,19.90
2017-09-25T15:45:50.866Z,19.80
2017-09-25T15:48:18.499Z,19.80
2017-09-25T15:50:46.146Z,19.80
2017-09-25T15:53:13.809Z,19.80
2017-09-25T15:55:41.464Z,19.80
2017-09-25T15:58:09.129Z,19.80
2017-09-25T16:00:36.747Z,19.80
2017-09-25T16:03:04.402Z,19.80
2017-09-25T16:05:32.034Z,19.80
2017-09-25T16:08:00.458Z,19.80
2017-09-25T16:10:28.093Z,19.70
2017-09-25T16:12:55.755Z,19.70
2017-09-25T16:15:23.387Z,19.70
2017-09-25T16:17:51.028Z,19.70
2017-09-25T16:20:18.704Z,19.70
2017-09-25T16:22:46.373Z,19.70
2017-09-25T16:25:13.988Z,19.60
2017-09-25T16:27:41.647Z,19.60
2017-09-25T16:30:09.324Z,19.60
2017-09-25T16:32:36.943Z,19.50
2017-09-25T16:35:05.380Z,19.50
2017-09-25T16:37:33.014Z,19.40
2017-09-25T16:40:00.699Z,19.50
2017-09-25T16:42:28.330Z,19.40
2017-09-25T16:44:55.962Z,19.40
2017-09-25T16:47:24.385Z,19.30
2017-09-25T16:49:52.038Z,19.30
2017-09-25T16:52:19.691Z,19.30
2017-09-25T16:54:47.331Z,19.30
2017-09-25T16:57:15.930Z,19.30
2017-09-25T16:59:43.566Z,19.20
2017-09-25T17:02:12.006Z,19.30
2017-09-25T17:04:39.676Z,19.20
2017-09-25T17:07:07.427Z,19.20
2017-09-25T17:09:35.076Z,19.20
2017-09-25T17:12:02.700Z,19.10
2017-09-25T17:14:31.127Z,19.10
2017-09-25T17:16:58.752Z,19.10
2017-09-25T17:19:26.409Z,19.10
2017-09-25T17:21:54.087Z,19.10
2017-09-25T17:24:21.748Z,19.10
2017-09-25T17:26:49.369Z,19.00
2017-09-25T17:29:16.987Z,19.00
2017-09-25T17:31:44.648Z,19.00
2017-09-25T17:34:12.324Z,19.00
2017-09-25T17:36:39.968Z,18.90
2017-09-25T17:39:07.586Z,18.90
2017-09-25T17:41:36.024Z,18.90
2017-09-25T17:44:03.646Z,18.90
2017-09-25T17:46:31.310Z,18.90
2017-09-25T17:48:58.958Z,18.90
2017-09-25T17:51:27.475Z,18.80
2017-09-25T17:53:55.113Z,18.80
2017-09-25T17:56:22.741Z,18.80
2017-09-25T17:58:50.397Z,18.80
2017-09-25T18:01:18.042Z,18.80
2017-09-25T18:03:45.724Z,18.80
2017-09-25T18:06:14.162Z,18.80
2017-09-25T18:08:41.841Z,18.70
2017-09-25T18:11:09.464Z,18.80
2017-09-25T18:13:37.139Z,18.80
2017-09-25T18:16:04.780Z,18.80
2017-09-25T18:18:33.225Z,18.70
2017-09-25T18:21:00.885Z,18.70
2017-09-25T18:23:28.512Z,18.70
2017-09-25T18:25:56.179Z,18.70
2017-09-25T18:28:23.959Z,18.70
2017-09-25T18:30:51.619Z,18.70
2017-09-25T18:33:19.303Z,18.70
2017-09-25T18:35:46.924Z,18.60
2017-09-25T18:38:14.598Z,18.60
2017-09-25T18:40:42.259Z,18.60
2017-09-25T18:43:09.890Z,18.60
2017-09-25T18:45:37.572Z,18.50
2017-09-25T18:48:05.200Z,18.50
2017-09-25T18:50:33.597Z,18.50
2017-09-25T18:53:01.258Z,18.50
2017-09-25T18:55:28.892Z,18.50
2017-09-25T18:57:57.331Z,18.40
2017-09-25T19:00:24.976Z,18.40
2017-09-25T19:02:52.618Z,18.40
2017-09-25T19:05:20.320Z,18.40
2017-09-25T19:07:47.944Z,18.30
2017-09-25T19:10:15.608Z,18.30
2017-09-25T19:12:43.303Z,18.30
2017-09-25T19:15:11.068Z,18.30
2017-09-25T19:17:38.775Z,18.30
2017-09-25T19:20:07.160Z,18.30
2017-09-25T19:22:36.394Z,18.30
2017-09-25T19:25:04.034Z,18.30
2017-09-25T19:27:31.712Z,18.30
2017-09-25T19:29:59.347Z,18.30
2017-09-25T19:32:27.765Z,18.40
2017-09-25T19:34:55.424Z,18.30
2017-09-25T19:37:23.089Z,18.40
2017-09-25T19:39:50.747Z,18.40
2017-09-25T19:42:18.386Z,18.40
2017-09-25T19:44:46.052Z,18.30
2017-09-25T19:47:13.716Z,18.30
2017-09-25T19:52:40.910Z,18.30
2017-09-25T19:55:15.191Z,18.30
2017-09-25T19:57:59.486Z,18.30
2017-09-25T20:00:27.148Z,18.20
2017-09-25T20:02:54.792Z,18.20
2017-09-25T20:05:22.416Z,18.10
2017-09-25T20:07:50.834Z,18.10
2017-09-25T20:10:18.963Z,18.10
2017-09-25T20:12:47.400Z,18.00
2017-09-25T20:15:20.734Z,18.00
2017-09-25T20:18:00.832Z,18.00
2017-09-25T20:20:28.517Z,18.00
2017-09-25T20:22:56.323Z,18.00
2017-09-25T20:25:24.726Z,18.00
2017-09-25T20:27:52.352Z,17.90
2017-09-25T20:30:20.008Z,17.90
2017-09-25T20:32:47.650Z,17.90
2017-09-25T20:35:15.322Z,17.90
2017-09-25T20:37:42.983Z,17.90
2017-09-25T20:40:10.624Z,17.90
2017-09-25T20:42:38.276Z,17.90
2017-09-25T20:45:05.910Z,17.90
2017-09-25T20:47:33.631Z,17.90
2017-09-25T20:50:01.297Z,17.90
2017-09-25T20:52:28.960Z,17.90
2017-09-25T20:54:56.619Z,17.80
2017-09-25T20:57:24.380Z,17.80
2017-09-25T20:59:52.001Z,17.80
2017-09-25T21:02:19.638Z,17.80
2017-09-25T21:04:49.084Z,17.80
2017-09-25T21:07:16.899Z,17.70
2017-09-25T21:09:45.445Z,17.80
2017-09-25T21:12:13.100Z,17.70
2017-09-25T21:14:40.713Z,17.70
2017-09-25T21:17:09.096Z,17.80
2017-09-25T21:19:37.559Z,17.80
2017-09-25T21:22:05.949Z,17.70
2017-09-25T21:24:34.332Z,17.70
2017-09-25T21:27:20.430Z,17.70
2017-09-25T21:29:48.152Z,17.70
2017-09-25T21:32:15.779Z,17.70
2017-09-25T21:34:43.815Z,17.70
2017-09-25T21:37:12.218Z,17.70
2017-09-25T21:39:40.118Z,17.70
2017-09-25T21:42:07.794Z,17.70
2017-09-25T21:44:36.208Z,17.70
2017-09-25T21:47:04.602Z,17.70
2017-09-25T21:49:32.270Z,17.70
2017-09-25T21:51:59.890Z,17.70
2017-09-25T21:54:28.290Z,17.70
2017-09-25T21:56:56.727Z,17.70
2017-09-25T21:59:24.577Z,17.60
2017-09-25T22:01:52.221Z,17.70
2017-09-25T22:04:19.854Z,17.60
2017-09-25T22:06:48.287Z,17.60
2017-09-25T22:09:15.915Z,17.60
2017-09-25T22:11:43.559Z,17.60
2017-09-25T22:14:11.965Z,17.60
2017-09-25T22:16:39.612Z,17.50
2017-09-25T22:19:07.260Z,17.60
2017-09-25T22:21:35.685Z,17.50
2017-09-25T22:24:03.311Z,17.50
2017-09-25T22:26:30.937Z,17.50
2017-09-25T22:28:58.589Z,17.50
2017-09-25T22:31:26.222Z,17.50
2017-09-25T22:33:53.918Z,17.50
2017-09-25T22:36:21.564Z,17.50
2017-09-25T22:38:49.228Z,17.50
2017-09-25T22:41:16.984Z,17.50
2017-09-25T22:43:50.253Z,17.50
2017-09-25T22:46:17.958Z,17.50
2017-09-25T22:48:45.703Z,17.50
2017-09-25T22:51:13.391Z,17.50
2017-09-25T22:53:41.052Z,17.50
2017-09-25T22:56:08.713Z,17.50
2017-09-25T22:58:37.099Z,17.50
2017-09-25T23:01:06.255Z,17.40
2017-09-25T23:03:37.784Z,17.40
2017-09-25T23:06:05.428Z,17.40
2017-09-25T23:08:33.837Z,17.40
2017-09-25T23:11:04.225Z,17.40
2017-09-25T23:13:32.688Z,17.30
2017-09-25T23:16:00.339Z,17.30
2017-09-25T23:18:27.983Z,17.30
2017-09-25T23:20:55.623Z,17.30
2017-09-25T23:23:23.281Z,17.30
2017-09-25T23:25:50.905Z,17.30
2017-09-25T23:28:18.537Z,17.30
2017-09-25T23:30:48.839Z,17.30
2017-09-25T23:33:16.475Z,17.30
2017-09-25T23:35:44.895Z,17.20
2017-09-25T23:38:12.681Z,17.20
2017-09-25T23:40:40.297Z,17.20
2017-09-25T23:43:08.087Z,17.10
2017-09-25T23:45:35.736Z,17.10
2017-09-25T23:48:03.359Z,17.10
2017-09-25T23:50:31.747Z,17.00
2017-09-25T23:52:59.411Z,17.00
2017-09-25T23:55:27.795Z,17.00
2017-09-25T23:57:55.425Z,17.00
